首页
METAR-TAF:

METAR-TAF

机场 :

宗古爾達克, 土耳其

纬度: 41-27N, 经度: 031-48E, 海拔: 136米

当前天气观测

该预报发布于5小时和9分钟前的13:50 UTC
风速9节,风向
温度 19°C
湿度 30%
气压 1005 hPa
能见度10公里或以上
1500米以下无云,无积雨云

METAR: LTAS 261350Z 36009KT CAVOK 19/01 Q1005

时间: 21:59 (18:59 UTC)

预报

该预报发布于5小时和19分钟前的13:40 UTC
预报有效从26日的 15点(UTC)到 26日的 24点(UTC)
风速8节,风向南转南东
能见度10公里或以上
1500米以下无云,无积雨云

TAF: LTAS 261340Z 2615/2624 16008KT CAVOK

超过4000个机场的气象观测和天气预报(METAR&TAF报告)。

可查询的气象台以黄色和红色小点在地图上表示。

将鼠标移到小点上方,可查看气象台名称。

然后点击查看天气观测和预报。

如需切换地图:点击带黑十字的绿色按钮放大地图;点击带横线的绿色按钮缩小地图;或者点击绿色箭头查看邻近地区的地图。


METAR-TAF: